createdAt,value
2023-02-22T00:00:54.570Z,38.63
2023-02-22T00:03:25.369Z,32.88
2023-02-22T00:05:55.088Z,35.60
2023-02-22T00:08:24.877Z,33.78
2023-02-22T00:11:10.731Z,30.60
2023-02-22T00:13:38.704Z,28.77
2023-02-22T00:16:06.566Z,31.48
2023-02-22T00:18:33.657Z,30.48
2023-02-22T00:21:01.572Z,28.70
2023-02-22T00:23:30.579Z,31.17
2023-02-22T00:25:58.892Z,30.85
2023-02-22T00:28:54.164Z,32.70
2023-02-22T00:31:22.161Z,32.33
2023-02-22T00:33:49.169Z,33.30
2023-02-22T00:36:16.056Z,33.08
2023-02-22T00:38:46.230Z,32.85
2023-02-22T00:41:13.294Z,37.55
2023-02-22T00:43:41.042Z,35.95
2023-02-22T00:46:07.929Z,36.28
2023-02-22T00:48:34.890Z,36.58
2023-02-22T00:51:01.885Z,37.97
2023-02-22T00:53:28.790Z,33.92
2023-02-22T00:55:55.843Z,34.63
2023-02-22T00:58:22.986Z,34.78
2023-02-22T01:00:50.467Z,33.53
2023-02-22T01:03:19.731Z,34.80
2023-02-22T01:05:47.926Z,35.28
2023-02-22T01:08:16.735Z,34.88
2023-02-22T01:10:45.191Z,35.80
2023-02-22T01:13:13.048Z,34.50
2023-02-22T01:15:43.242Z,35.03
2023-02-22T01:18:12.855Z,34.42
2023-02-22T01:20:39.937Z,37.03
2023-02-22T01:23:08.308Z,36.83
2023-02-22T01:25:36.231Z,37.08
2023-02-22T01:28:06.343Z,38.15
2023-02-22T01:30:35.568Z,38.78
2023-02-22T01:33:04.767Z,40.60
2023-02-22T01:35:35.314Z,39.67
2023-02-22T01:38:02.941Z,39.35
2023-02-22T01:40:35.880Z,38.85
2023-02-22T01:43:06.866Z,38.67
2023-02-22T01:45:33.586Z,40.35
2023-02-22T01:48:08.968Z,38.20
2023-02-22T01:50:55.946Z,39.53
2023-02-22T01:53:29.397Z,37.22
2023-02-22T01:55:57.841Z,38.55
2023-02-22T01:58:28.522Z,35.38
2023-02-22T02:03:40.659Z,35.47
2023-02-22T02:06:13.075Z,35.90
2023-02-22T02:08:59.870Z,34.95
2023-02-22T02:11:28.445Z,34.55
2023-02-22T02:13:57.201Z,34.55
2023-02-22T02:16:27.919Z,33.90
2023-02-22T02:18:55.453Z,34.85
2023-02-22T02:21:25.301Z,34.08
2023-02-22T02:24:24.732Z,34.17
2023-02-22T02:26:55.582Z,33.35
2023-02-22T02:29:44.029Z,31.95
2023-02-22T02:32:28.392Z,30.33
2023-02-22T02:35:18.754Z,31.23
2023-02-22T02:38:10.144Z,31.35
2023-02-22T02:40:50.115Z,30.80
2023-02-22T02:43:26.642Z,30.05
2023-02-22T02:46:15.720Z,32.78
2023-02-22T02:48:49.753Z,31.45
2023-02-22T02:51:18.490Z,32.47
2023-02-22T02:53:49.044Z,31.13
2023-02-22T02:56:15.994Z,31.90
2023-02-22T02:58:49.829Z,32.30
2023-02-22T03:01:26.165Z,30.42
2023-02-22T03:04:11.386Z,30.55
2023-02-22T03:06:46.974Z,30.90
2023-02-22T03:09:34.975Z,30.08
2023-02-22T03:12:27.874Z,29.20
2023-02-22T03:15:26.530Z,30.63
2023-02-22T03:18:23.136Z,27.88
2023-02-22T03:21:31.638Z,29.33
2023-02-22T03:24:10.240Z,28.75
2023-02-22T03:26:42.227Z,26.85
2023-02-22T03:29:11.949Z,25.80
2023-02-22T03:31:43.158Z,24.92
2023-02-22T03:34:21.998Z,26.33
2023-02-22T03:36:56.179Z,25.20
2023-02-22T03:39:31.182Z,25.35
2023-02-22T03:42:10.137Z,24.67
2023-02-22T03:44:40.672Z,23.92
2023-02-22T03:47:12.197Z,23.75
2023-02-22T03:49:52.603Z,24.73
2023-02-22T03:52:20.565Z,21.73
2023-02-22T03:54:48.031Z,21.33
2023-02-22T03:57:26.048Z,21.38
2023-02-22T03:59:53.614Z,20.77
2023-02-22T04:02:20.798Z,21.73
2023-02-22T04:04:48.570Z,20.02
2023-02-22T04:07:16.001Z,21.05
2023-02-22T04:09:44.108Z,20.88
2023-02-22T04:12:11.087Z,21.13
2023-02-22T04:14:37.933Z,19.88
2023-02-22T04:17:04.967Z,19.40
2023-02-22T04:19:31.945Z,20.23
2023-02-22T04:21:58.856Z,19.23
2023-02-22T04:24:25.740Z,18.08
2023-02-22T04:26:53.260Z,18.10
2023-02-22T04:29:20.238Z,17.88
2023-02-22T04:31:47.562Z,17.70
2023-02-22T04:34:14.603Z,18.33
2023-02-22T04:36:44.527Z,18.17
2023-02-22T04:39:11.918Z,18.95
2023-02-22T04:41:39.054Z,18.98
2023-02-22T04:44:06.023Z,18.08
2023-02-22T04:46:33.056Z,18.88
2023-02-22T04:49:00.088Z,18.77
2023-02-22T04:51:27.113Z,18.05
2023-02-22T04:53:54.098Z,18.15
2023-02-22T04:56:21.349Z,18.38
2023-02-22T04:58:48.467Z,17.38
2023-02-22T05:01:16.999Z,16.83
2023-02-22T05:03:44.518Z,17.15
2023-02-22T05:06:12.818Z,16.60
2023-02-22T05:08:39.725Z,16.20
2023-02-22T05:11:07.038Z,14.38
2023-02-22T05:13:36.397Z,15.48
2023-02-22T05:16:04.370Z,15.00
2023-02-22T05:18:31.313Z,14.98
2023-02-22T05:20:58.535Z,16.55
2023-02-22T05:23:25.363Z,17.40
2023-02-22T05:25:52.246Z,15.73
2023-02-22T05:28:19.311Z,15.98
2023-02-22T05:30:46.385Z,16.13
2023-02-22T05:33:13.706Z,14.73
2023-02-22T05:35:40.683Z,17.25
2023-02-22T05:38:26.190Z,16.85
2023-02-22T05:40:53.051Z,17.05
2023-02-22T05:43:19.968Z,18.50
2023-02-22T05:45:46.942Z,18.90
2023-02-22T05:48:13.920Z,20.20
2023-02-22T05:50:40.835Z,25.02
2023-02-22T05:53:07.838Z,26.20
2023-02-22T05:55:35.394Z,25.55
2023-02-22T05:58:04.870Z,24.70
2023-02-22T06:00:32.212Z,24.52
2023-02-22T06:03:02.024Z,24.20
2023-02-22T06:05:30.082Z,25.70
2023-02-22T06:07:59.168Z,24.95
2023-02-22T06:10:27.135Z,24.85
2023-02-22T06:12:55.290Z,23.90
2023-02-22T06:15:24.724Z,21.65
2023-02-22T06:17:52.106Z,22.95
2023-02-22T06:20:23.483Z,22.00
2023-02-22T06:22:52.490Z,23.02
2023-02-22T06:25:24.184Z,23.77
2023-02-22T06:27:51.563Z,22.27
2023-02-22T06:30:21.395Z,19.40
2023-02-22T06:32:48.392Z,20.85
2023-02-22T06:35:16.052Z,22.25
2023-02-22T06:37:44.635Z,23.92
2023-02-22T06:40:12.636Z,23.10
2023-02-22T06:42:42.098Z,23.70
2023-02-22T06:45:10.005Z,24.13
2023-02-22T06:47:42.653Z,24.15
2023-02-22T06:50:24.875Z,23.65
2023-02-22T06:52:52.497Z,25.20
2023-02-22T06:55:25.174Z,25.67
2023-02-22T06:58:10.817Z,26.50
2023-02-22T07:00:41.412Z,26.05
2023-02-22T07:03:08.408Z,29.15
2023-02-22T07:05:35.766Z,26.75
2023-02-22T07:08:08.125Z,28.35
2023-02-22T07:10:36.880Z,28.45
2023-02-22T07:13:05.133Z,30.02
2023-02-22T07:15:34.825Z,30.73
2023-02-22T07:18:02.266Z,32.33
2023-02-22T07:20:32.040Z,33.75
2023-02-22T07:22:59.359Z,35.42
2023-02-22T07:25:26.695Z,36.88
2023-02-22T07:27:54.843Z,30.15
2023-02-22T07:30:25.744Z,28.60
2023-02-22T07:32:55.199Z,29.67
2023-02-22T07:35:31.106Z,30.67
2023-02-22T07:37:59.360Z,33.67
2023-02-22T07:40:34.819Z,34.63
2023-02-22T07:43:26.446Z,37.53
2023-02-22T07:45:56.198Z,32.67
2023-02-22T07:48:26.903Z,33.83
2023-02-22T07:50:54.036Z,33.42
2023-02-22T07:53:24.100Z,31.40
2023-02-22T07:55:52.106Z,32.63
2023-02-22T07:58:24.947Z,33.20
2023-02-22T08:00:53.041Z,33.75
2023-02-22T08:03:23.506Z,31.77
2023-02-22T08:05:53.468Z,29.70
2023-02-22T08:08:20.540Z,31.20
2023-02-22T08:10:48.437Z,31.40
2023-02-22T08:13:16.651Z,27.90
2023-02-22T08:15:50.084Z,29.33
2023-02-22T08:18:19.417Z,27.23
2023-02-22T08:20:52.238Z,28.95
2023-02-22T08:23:20.620Z,27.92
2023-02-22T08:25:51.434Z,26.55
2023-02-22T08:28:22.733Z,26.25
2023-02-22T08:30:51.086Z,26.50
2023-02-22T08:33:20.142Z,20.70
2023-02-22T08:35:49.985Z,17.20
2023-02-22T08:38:23.312Z,10.55
2023-02-22T08:40:52.252Z,10.48
2023-02-22T08:43:20.910Z,10.00
2023-02-22T08:45:49.939Z,14.55
2023-02-22T08:48:17.801Z,17.85
2023-02-22T08:50:44.927Z,18.20
2023-02-22T08:53:13.841Z,12.75
2023-02-22T08:55:42.240Z,11.73
2023-02-22T08:58:10.071Z,9.60
2023-02-22T09:00:39.050Z,10.27
2023-02-22T09:03:09.291Z,9.52
2023-02-22T09:05:36.825Z,9.48
2023-02-22T09:08:04.301Z,6.97
2023-02-22T09:10:35.956Z,7.28
2023-02-22T09:13:04.220Z,9.90
2023-02-22T09:15:36.413Z,12.88
2023-02-22T09:18:04.512Z,11.43
2023-02-22T09:20:31.680Z,10.18
2023-02-22T09:22:59.965Z,17.10
2023-02-22T09:25:27.433Z,10.23
2023-02-22T09:27:55.739Z,9.80
2023-02-22T09:30:32.557Z,11.65
2023-02-22T09:33:10.626Z,11.48
2023-02-22T09:35:46.733Z,10.45
2023-02-22T09:38:16.456Z,10.85
2023-02-22T09:40:50.471Z,10.70
2023-02-22T09:43:35.962Z,8.88
2023-02-22T09:46:28.157Z,9.27
2023-02-22T09:49:02.152Z,9.40
2023-02-22T09:52:06.082Z,7.85
2023-02-22T09:54:52.009Z,9.07
2023-02-22T09:57:27.210Z,8.52
2023-02-22T10:00:13.270Z,8.13
2023-02-22T10:02:52.356Z,8.85
2023-02-22T10:05:31.674Z,8.57
2023-02-22T10:08:06.361Z,9.52
2023-02-22T10:10:39.429Z,7.13
2023-02-22T10:13:14.256Z,9.35
2023-02-22T10:16:05.637Z,6.38
2023-02-22T10:19:15.369Z,6.88
2023-02-22T10:21:49.060Z,5.10
2023-02-22T10:24:38.767Z,5.18
2023-02-22T10:27:15.387Z,4.93
2023-02-22T10:29:47.992Z,3.80
2023-02-22T10:32:29.877Z,3.90
2023-02-22T10:35:00.975Z,3.92
2023-02-22T10:37:34.406Z,4.07
2023-02-22T10:40:32.312Z,5.78
2023-02-22T10:43:03.276Z,4.95
2023-02-22T10:45:37.352Z,5.65
2023-02-22T10:48:12.330Z,5.72
2023-02-22T10:50:44.503Z,6.13
2023-02-22T10:53:16.828Z,6.30
2023-02-22T10:56:22.725Z,6.95
2023-02-22T10:58:57.749Z,4.93
2023-02-22T11:01:32.200Z,4.60
2023-02-22T11:04:05.644Z,5.32
2023-02-22T11:06:34.828Z,4.53
2023-02-22T11:09:22.731Z,3.85
2023-02-22T11:12:07.085Z,3.60
2023-02-22T11:14:35.079Z,3.97
2023-02-22T11:17:08.275Z,3.97
2023-02-22T11:19:38.561Z,4.07
2023-02-22T11:22:05.311Z,5.25
2023-02-22T11:24:47.445Z,8.18
2023-02-22T11:27:38.417Z,3.70
2023-02-22T11:30:35.192Z,4.28
2023-02-22T11:33:06.403Z,5.40
2023-02-22T11:35:51.009Z,4.18
2023-02-22T11:38:22.887Z,3.70
2023-02-22T11:41:18.982Z,3.10
2023-02-22T11:43:51.488Z,3.00
2023-02-22T11:46:29.438Z,3.63
2023-02-22T11:49:06.646Z,2.70
2023-02-22T11:52:03.516Z,2.80
2023-02-22T11:54:54.980Z,3.30
2023-02-22T11:57:46.857Z,3.50
2023-02-22T12:00:41.727Z,3.35
2023-02-22T12:03:33.010Z,3.78
2023-02-22T12:06:24.873Z,3.70
2023-02-22T12:09:03.816Z,3.38
2023-02-22T12:11:43.637Z,3.10
2023-02-22T12:14:53.699Z,4.03
2023-02-22T12:17:39.033Z,4.25
2023-02-22T12:20:23.226Z,4.75
2023-02-22T12:23:13.538Z,5.28
2023-02-22T12:25:54.824Z,5.15
2023-02-22T12:28:26.054Z,4.13
2023-02-22T12:31:05.236Z,4.85
2023-02-22T12:33:50.600Z,4.25
2023-02-22T12:36:23.070Z,4.30
2023-02-22T12:38:59.286Z,5.38
2023-02-22T12:41:34.534Z,5.30
2023-02-22T12:44:09.600Z,5.50
2023-02-22T12:46:48.102Z,5.93
2023-02-22T12:49:26.667Z,6.72
2023-02-22T12:52:24.905Z,4.18
2023-02-22T12:55:01.395Z,6.10
2023-02-22T13:00:28.883Z,5.70
2023-02-22T13:03:18.035Z,7.28
2023-02-22T13:05:51.582Z,7.10
2023-02-22T13:08:40.032Z,6.72
2023-02-22T13:11:31.966Z,5.80
2023-02-22T13:14:28.912Z,5.00
2023-02-22T13:17:04.838Z,6.15
2023-02-22T13:19:50.775Z,6.28
2023-02-22T13:22:30.196Z,4.40
2023-02-22T13:25:16.712Z,4.13
2023-02-22T13:27:50.586Z,5.82
2023-02-22T13:30:30.025Z,6.13
2023-02-22T13:33:24.649Z,7.45
2023-02-22T13:36:10.441Z,5.70
2023-02-22T13:39:13.244Z,4.95
2023-02-22T13:41:55.547Z,4.50
2023-02-22T13:44:42.484Z,5.35
2023-02-22T13:47:44.739Z,5.32
2023-02-22T13:50:51.824Z,4.75
2023-02-22T13:53:29.217Z,5.95
2023-02-22T13:56:00.845Z,6.20
2023-02-22T13:58:28.142Z,5.60
2023-02-22T14:00:57.765Z,5.55
2023-02-22T14:03:36.349Z,5.63
2023-02-22T14:06:08.731Z,5.75
2023-02-22T14:08:35.548Z,6.10
2023-02-22T14:11:14.808Z,6.70
2023-02-22T14:14:01.631Z,6.22
2023-02-22T14:16:30.484Z,5.40
2023-02-22T14:19:27.106Z,6.75
2023-02-22T14:22:02.696Z,6.13
2023-02-22T14:24:51.736Z,6.30
2023-02-22T14:27:20.117Z,5.22
2023-02-22T14:30:01.273Z,4.35
2023-02-22T14:32:34.246Z,5.30
2023-02-22T14:35:14.298Z,5.28
2023-02-22T14:37:55.052Z,5.07
2023-02-22T14:40:26.328Z,5.97
2023-02-22T14:43:08.118Z,5.35
2023-02-22T14:45:43.624Z,5.63
2023-02-22T14:48:20.644Z,6.03
2023-02-22T14:51:05.859Z,6.07
2023-02-22T14:53:54.756Z,6.63
2023-02-22T14:56:30.363Z,7.03
2023-02-22T14:59:27.307Z,6.65
2023-02-22T15:02:18.341Z,7.65
2023-02-22T15:04:57.235Z,6.05
2023-02-22T15:07:30.410Z,5.45
2023-02-22T15:10:31.305Z,6.03
2023-02-22T15:13:12.190Z,9.73
2023-02-22T15:15:49.090Z,7.70
2023-02-22T15:18:33.642Z,7.65
2023-02-22T15:21:16.578Z,7.85
2023-02-22T15:23:47.321Z,9.40
2023-02-22T15:27:00.174Z,9.50
2023-02-22T15:29:39.192Z,8.93
2023-02-22T15:32:53.330Z,8.23
2023-02-22T15:35:24.236Z,10.00
2023-02-22T15:38:06.508Z,10.60
2023-02-22T15:40:35.084Z,10.40
2023-02-22T15:43:09.242Z,10.25
2023-02-22T15:45:43.185Z,11.32
2023-02-22T15:48:16.123Z,10.55
2023-02-22T15:51:06.921Z,11.73
2023-02-22T15:53:46.131Z,12.65
2023-02-22T15:56:17.492Z,12.98
2023-02-22T15:58:51.863Z,15.18
2023-02-22T16:01:21.597Z,15.60
2023-02-22T16:03:56.946Z,17.23
2023-02-22T16:06:37.539Z,17.70
2023-02-22T16:09:13.873Z,19.55
2023-02-22T16:11:44.371Z,19.30
2023-02-22T16:14:25.581Z,22.80
2023-02-22T16:17:33.766Z,26.58
2023-02-22T16:22:38.646Z,28.88
2023-02-22T16:27:58.423Z,26.25
2023-02-22T16:30:27.595Z,25.30
2023-02-22T16:32:57.112Z,23.00
2023-02-22T16:35:29.462Z,24.88
2023-02-22T16:38:08.509Z,23.23
2023-02-22T16:40:41.380Z,25.75
2023-02-22T16:43:17.488Z,23.92
2023-02-22T16:45:44.609Z,25.05
2023-02-22T16:48:17.767Z,26.25
2023-02-22T16:50:44.933Z,28.95
2023-02-22T16:53:12.312Z,30.25
2023-02-22T16:55:46.643Z,30.88
2023-02-22T16:58:14.929Z,30.77
2023-02-22T17:00:42.450Z,28.67
2023-02-22T17:03:16.341Z,29.45
2023-02-22T17:05:44.353Z,29.08
2023-02-22T17:08:11.500Z,28.42
2023-02-22T17:10:40.628Z,27.98
2023-02-22T17:13:21.797Z,29.33
2023-02-22T17:15:50.049Z,30.38
2023-02-22T17:18:23.148Z,29.65
2023-02-22T17:20:54.615Z,28.63
2023-02-22T17:23:23.313Z,28.88
2023-02-22T17:25:54.050Z,28.95
2023-02-22T17:28:22.053Z,28.50
2023-02-22T17:30:49.229Z,29.02
2023-02-22T17:33:19.891Z,27.25
2023-02-22T17:35:47.236Z,28.90
2023-02-22T17:38:18.614Z,28.92
2023-02-22T17:40:52.193Z,30.38
2023-02-22T17:43:23.078Z,28.70
2023-02-22T17:45:50.159Z,28.58
2023-02-22T17:48:22.905Z,29.55
2023-02-22T17:50:50.969Z,28.17
2023-02-22T17:53:21.874Z,31.02
2023-02-22T17:55:49.781Z,28.98
2023-02-22T17:58:17.681Z,29.23
2023-02-22T18:00:50.804Z,30.92
2023-02-22T18:03:26.029Z,29.80
2023-02-22T18:05:58.627Z,30.02
2023-02-22T18:08:31.079Z,31.42
2023-02-22T18:10:58.221Z,32.30
2023-02-22T18:13:27.886Z,32.08
2023-02-22T18:16:00.401Z,33.58
2023-02-22T18:18:27.941Z,32.80
2023-02-22T18:20:59.723Z,33.90
2023-02-22T18:23:47.574Z,33.85
2023-02-22T18:26:16.872Z,34.58
2023-02-22T18:28:44.110Z,36.08
2023-02-22T18:31:17.327Z,37.80
2023-02-22T18:33:47.542Z,35.80
2023-02-22T18:36:16.698Z,37.22
2023-02-22T18:38:45.010Z,40.92
2023-02-22T18:41:17.492Z,40.53
2023-02-22T18:43:46.559Z,39.80
2023-02-22T18:46:16.651Z,41.15
2023-02-22T18:48:44.390Z,43.20
2023-02-22T18:51:13.651Z,67.38
2023-02-22T18:53:46.951Z,59.53
2023-02-22T18:56:34.321Z,66.43
2023-02-22T18:59:03.777Z,80.78
2023-02-22T19:01:38.842Z,91.28
2023-02-22T19:04:12.839Z,97.13
2023-02-22T19:06:40.115Z,78.82
2023-02-22T19:09:09.854Z,81.05
2023-02-22T19:11:37.420Z,83.40
2023-02-22T19:14:06.114Z,88.35
2023-02-22T19:16:33.425Z,85.00
2023-02-22T19:19:00.490Z,82.38
2023-02-22T19:21:29.202Z,80.53
2023-02-22T19:23:56.634Z,86.70
2023-02-22T19:26:25.802Z,83.35
2023-02-22T19:28:54.828Z,77.88
2023-02-22T19:31:28.466Z,72.53
2023-02-22T19:34:00.767Z,73.32
2023-02-22T19:36:28.050Z,78.07
2023-02-22T19:38:54.995Z,74.63
2023-02-22T19:41:23.178Z,74.10
2023-02-22T19:43:52.682Z,73.53
2023-02-22T19:46:21.559Z,75.28
2023-02-22T19:48:49.534Z,76.15
2023-02-22T19:51:17.852Z,76.95
2023-02-22T19:53:46.064Z,75.80
2023-02-22T19:56:16.316Z,76.78
2023-02-22T19:58:45.040Z,80.65
2023-02-22T20:01:33.448Z,82.78
2023-02-22T20:04:06.219Z,85.82
2023-02-22T20:06:37.521Z,88.78
2023-02-22T20:09:04.710Z,91.82
2023-02-22T20:11:33.990Z,88.43
2023-02-22T20:14:01.273Z,92.05
2023-02-22T20:16:29.173Z,88.97
2023-02-22T20:18:56.243Z,85.70
2023-02-22T20:21:43.860Z,81.65
2023-02-22T20:24:20.747Z,78.43
2023-02-22T20:26:48.644Z,76.10
2023-02-22T20:29:16.292Z,77.10
2023-02-22T20:31:44.341Z,76.65
2023-02-22T20:34:12.042Z,80.38
2023-02-22T20:36:40.724Z,78.75
2023-02-22T20:39:13.607Z,79.32
2023-02-22T20:41:42.786Z,75.63
2023-02-22T20:44:13.667Z,75.43
2023-02-22T20:46:41.221Z,81.07
2023-02-22T20:49:11.398Z,81.35
2023-02-22T20:51:42.065Z,84.32
2023-02-22T20:54:12.440Z,84.32
2023-02-22T20:56:44.366Z,79.35
2023-02-22T20:59:14.595Z,77.88
2023-02-22T21:01:43.218Z,76.22
2023-02-22T21:04:11.258Z,71.97
2023-02-22T21:06:39.096Z,69.05
2023-02-22T21:09:08.886Z,71.63
2023-02-22T21:11:36.299Z,77.35
2023-02-22T21:14:03.651Z,79.72
2023-02-22T21:16:34.148Z,80.18
2023-02-22T21:19:03.421Z,85.00
2023-02-22T21:21:31.938Z,91.45
2023-02-22T21:24:03.128Z,79.25
2023-02-22T21:26:32.194Z,74.03
2023-02-22T21:29:01.728Z,77.10
2023-02-22T21:31:28.722Z,79.32
2023-02-22T21:33:57.825Z,83.15
2023-02-22T21:36:25.791Z,88.80
2023-02-22T21:38:55.953Z,89.97
2023-02-22T21:41:27.923Z,100.07
2023-02-22T21:43:57.304Z,94.60
2023-02-22T21:46:25.764Z,95.13
2023-02-22T21:48:52.808Z,73.53
2023-02-22T21:51:23.464Z,78.10
2023-02-22T21:53:52.682Z,69.78
2023-02-22T21:56:30.053Z,71.35
2023-02-22T21:59:05.074Z,63.53
2023-02-22T22:01:38.603Z,56.60
2023-02-22T22:04:05.556Z,47.78
2023-02-22T22:06:34.805Z,51.22
2023-02-22T22:09:04.844Z,52.75
2023-02-22T22:11:31.771Z,54.97
2023-02-22T22:14:00.026Z,57.25
2023-02-22T22:16:30.234Z,58.53
2023-02-22T22:18:57.925Z,60.00
2023-02-22T22:21:25.380Z,68.55
2023-02-22T22:23:57.512Z,70.65
2023-02-22T22:26:25.965Z,69.35
2023-02-22T22:28:56.060Z,65.40
2023-02-22T22:31:24.961Z,74.32
2023-02-22T22:33:52.430Z,75.88
2023-02-22T22:36:21.658Z,79.50
2023-02-22T22:38:49.584Z,81.28
2023-02-22T22:41:19.568Z,75.28
2023-02-22T22:43:47.197Z,61.45
2023-02-22T22:46:17.493Z,56.60
2023-02-22T22:48:47.396Z,55.42
2023-02-22T22:51:18.679Z,54.78
2023-02-22T22:53:47.988Z,61.85
2023-02-22T22:56:26.478Z,66.57
2023-02-22T22:58:59.057Z,71.55
2023-02-22T23:01:33.153Z,55.22
2023-02-22T23:04:03.275Z,71.90
2023-02-22T23:06:50.739Z,69.18
2023-02-22T23:09:21.997Z,68.03
2023-02-22T23:11:53.612Z,64.57
2023-02-22T23:14:26.541Z,69.32
2023-02-22T23:17:03.444Z,69.80
2023-02-22T23:19:31.416Z,67.97
2023-02-22T23:21:59.297Z,65.38
2023-02-22T23:24:29.302Z,62.13
2023-02-22T23:27:00.305Z,61.95
2023-02-22T23:29:29.990Z,64.07
2023-02-22T23:31:58.827Z,66.07
2023-02-22T23:34:26.476Z,67.30
2023-02-22T23:36:54.407Z,62.78
2023-02-22T23:39:22.683Z,60.40
2023-02-22T23:41:54.263Z,60.92
2023-02-22T23:44:22.136Z,60.40
2023-02-22T23:47:09.791Z,57.33
2023-02-22T23:49:38.470Z,60.60
2023-02-22T23:52:06.736Z,60.83
2023-02-22T23:54:36.737Z,60.78
2023-02-22T23:57:04.988Z,57.20
2023-02-22T23:59:33.691Z,58.50
